sensor_id;sensor_type;location;lat;lon;timestamp;P1;durP1;ratioP1;P2;durP2;ratioP2
18399;SDS011;9326;49.468;11.008;2023-11-19T08:00:18;1.07;;;0.93;;
18399;SDS011;9326;49.468;11.008;2023-11-19T09:12:01;2.10;;;2.00;;
18399;SDS011;9326;49.468;11.008;2023-11-19T09:14:32;4.23;;;1.50;;
18399;SDS011;9326;49.468;11.008;2023-11-19T09:17:09;4.40;;;2.10;;
18399;SDS011;9326;49.468;11.008;2023-11-19T09:19:36;2.00;;;1.80;;
18399;SDS011;9326;49.468;11.008;2023-11-19T09:22:03;2.60;;;2.00;;
18399;SDS011;9326;49.468;11.008;2023-11-19T09:24:30;3.93;;;2.30;;
18399;SDS011;9326;49.468;11.008;2023-11-19T09:26:59;5.73;;;2.10;;
18399;SDS011;9326;49.468;11.008;2023-11-19T09:29:26;2.07;;;1.80;;
18399;SDS011;9326;49.468;11.008;2023-11-19T09:31:53;2.00;;;1.40;;
18399;SDS011;9326;49.468;11.008;2023-11-19T09:34:20;2.37;;;1.23;;
18399;SDS011;9326;49.468;11.008;2023-11-19T09:36:48;2.63;;;1.27;;
18399;SDS011;9326;49.468;11.008;2023-11-19T09:39:15;3.37;;;1.30;;
18399;SDS011;9326;49.468;11.008;2023-11-19T09:41:43;2.17;;;1.20;;
18399;SDS011;9326;49.468;11.008;2023-11-19T09:44:11;2.63;;;1.33;;
18399;SDS011;9326;49.468;11.008;2023-11-19T09:46:40;4.80;;;1.17;;
18399;SDS011;9326;49.468;11.008;2023-11-19T09:49:08;4.60;;;1.30;;
18399;SDS011;9326;49.468;11.008;2023-11-19T09:51:35;2.00;;;1.30;;
18399;SDS011;9326;49.468;11.008;2023-11-19T09:54:02;2.77;;;1.80;;
18399;SDS011;9326;49.468;11.008;2023-11-19T09:56:30;5.83;;;2.63;;
18399;SDS011;9326;49.468;11.008;2023-11-19T09:58:57;3.70;;;1.90;;
18399;SDS011;9326;49.468;11.008;2023-11-19T10:01:27;4.10;;;1.80;;
18399;SDS011;9326;49.468;11.008;2023-11-19T10:03:56;5.07;;;1.73;;
18399;SDS011;9326;49.468;11.008;2023-11-19T10:06:24;2.90;;;1.80;;
18399;SDS011;9326;49.468;11.008;2023-11-19T10:08:52;3.30;;;1.50;;
18399;SDS011;9326;49.468;11.008;2023-11-19T10:11:20;2.80;;;1.87;;
18399;SDS011;9326;49.468;11.008;2023-11-19T10:13:47;3.87;;;1.70;;
18399;SDS011;9326;49.468;11.008;2023-11-19T10:16:14;4.00;;;1.70;;
18399;SDS011;9326;49.468;11.008;2023-11-19T10:18:46;3.10;;;1.40;;
18399;SDS011;9326;49.468;11.008;2023-11-19T10:21:16;4.03;;;1.80;;
18399;SDS011;9326;49.468;11.008;2023-11-19T10:23:50;2.40;;;1.80;;
18399;SDS011;9326;49.468;11.008;2023-11-19T10:26:19;2.87;;;1.50;;
18399;SDS011;9326;49.468;11.008;2023-11-19T10:28:47;1.90;;;1.50;;
18399;SDS011;9326;49.468;11.008;2023-11-19T10:31:15;3.90;;;1.27;;
18399;SDS011;9326;49.468;11.008;2023-11-19T10:33:42;1.50;;;1.10;;
18399;SDS011;9326;49.468;11.008;2023-11-19T10:36:11;1.67;;;1.20;;
18399;SDS011;9326;49.468;11.008;2023-11-19T10:38:39;2.00;;;1.37;;
18399;SDS011;9326;49.468;11.008;2023-11-19T10:41:07;3.03;;;1.30;;
18399;SDS011;9326;49.468;11.008;2023-11-19T10:43:42;2.50;;;1.27;;
18399;SDS011;9326;49.468;11.008;2023-11-19T10:46:11;1.73;;;1.33;;
18399;SDS011;9326;49.468;11.008;2023-11-19T10:48:38;2.70;;;1.40;;
18399;SDS011;9326;49.468;11.008;2023-11-19T10:51:06;1.87;;;1.50;;
18399;SDS011;9326;49.468;11.008;2023-11-19T10:53:35;2.57;;;1.40;;
18399;SDS011;9326;49.468;11.008;2023-11-19T10:56:04;3.50;;;1.20;;
18399;SDS011;9326;49.468;11.008;2023-11-19T10:58:33;2.03;;;1.13;;
18399;SDS011;9326;49.468;11.008;2023-11-19T11:01:03;3.33;;;1.20;;
18399;SDS011;9326;49.468;11.008;2023-11-19T11:03:35;1.53;;;1.30;;
18399;SDS011;9326;49.468;11.008;2023-11-19T11:06:04;2.10;;;1.17;;
18399;SDS011;9326;49.468;11.008;2023-11-19T11:08:31;1.30;;;1.20;;
18399;SDS011;9326;49.468;11.008;2023-11-19T11:11:00;1.83;;;1.10;;
18399;SDS011;9326;49.468;11.008;2023-11-19T11:13:29;2.30;;;1.20;;
18399;SDS011;9326;49.468;11.008;2023-11-19T11:15:57;2.83;;;1.30;;
18399;SDS011;9326;49.468;11.008;2023-11-19T11:18:24;2.83;;;1.37;;
18399;SDS011;9326;49.468;11.008;2023-11-19T11:20:52;1.87;;;1.20;;
18399;SDS011;9326;49.468;11.008;2023-11-19T11:23:25;3.20;;;1.30;;
18399;SDS011;9326;49.468;11.008;2023-11-19T11:25:59;2.30;;;1.10;;
18399;SDS011;9326;49.468;11.008;2023-11-19T11:28:32;2.33;;;1.30;;
18399;SDS011;9326;49.468;11.008;2023-11-19T11:36:41;2.23;;;1.27;;
18399;SDS011;9326;49.468;11.008;2023-11-19T11:39:09;2.77;;;1.10;;
18399;SDS011;9326;49.468;11.008;2023-11-19T11:41:37;2.93;;;1.30;;
18399;SDS011;9326;49.468;11.008;2023-11-19T11:44:05;1.93;;;1.20;;
18399;SDS011;9326;49.468;11.008;2023-11-19T11:49:26;3.23;;;1.20;;
18399;SDS011;9326;49.468;11.008;2023-11-19T11:51:57;3.97;;;1.60;;
18399;SDS011;9326;49.468;11.008;2023-11-19T11:54:26;2.70;;;1.30;;
18399;SDS011;9326;49.468;11.008;2023-11-19T11:57:02;3.00;;;1.30;;
18399;SDS011;9326;49.468;11.008;2023-11-19T11:59:40;2.47;;;1.30;;
18399;SDS011;9326;49.468;11.008;2023-11-19T12:02:09;2.00;;;1.40;;
18399;SDS011;9326;49.468;11.008;2023-11-19T12:04:37;2.10;;;1.20;;
18399;SDS011;9326;49.468;11.008;2023-11-19T12:07:04;3.03;;;1.30;;
18399;SDS011;9326;49.468;11.008;2023-11-19T12:09:31;3.53;;;1.50;;
18399;SDS011;9326;49.468;11.008;2023-11-19T12:12:12;2.67;;;1.40;;
18399;SDS011;9326;49.468;11.008;2023-11-19T12:17:37;3.27;;;1.90;;
18399;SDS011;9326;49.468;11.008;2023-11-19T12:20:05;3.53;;;1.60;;
18399;SDS011;9326;49.468;11.008;2023-11-19T12:22:34;3.10;;;1.70;;
18399;SDS011;9326;49.468;11.008;2023-11-19T12:25:01;3.70;;;1.73;;
18399;SDS011;9326;49.468;11.008;2023-11-19T12:27:29;3.30;;;1.70;;
18399;SDS011;9326;49.468;11.008;2023-11-19T12:29:56;3.43;;;1.80;;
18399;SDS011;9326;49.468;11.008;2023-11-19T12:32:23;5.87;;;1.93;;
18399;SDS011;9326;49.468;11.008;2023-11-19T12:34:53;2.70;;;1.90;;
18399;SDS011;9326;49.468;11.008;2023-11-19T12:37:21;2.87;;;1.43;;
18399;SDS011;9326;49.468;11.008;2023-11-19T12:39:48;2.10;;;1.47;;
18399;SDS011;9326;49.468;11.008;2023-11-19T12:42:15;3.47;;;1.90;;
18399;SDS011;9326;49.468;11.008;2023-11-19T12:44:53;2.00;;;1.40;;
18399;SDS011;9326;49.468;11.008;2023-11-19T12:47:21;2.73;;;1.47;;
18399;SDS011;9326;49.468;11.008;2023-11-19T12:49:58;3.50;;;1.60;;
18399;SDS011;9326;49.468;11.008;2023-11-19T12:52:25;5.87;;;1.60;;
18399;SDS011;9326;49.468;11.008;2023-11-19T12:54:53;2.27;;;1.23;;
18399;SDS011;9326;49.468;11.008;2023-11-19T12:57:20;1.23;;;1.10;;
18399;SDS011;9326;49.468;11.008;2023-11-19T12:59:56;3.60;;;1.33;;
18399;SDS011;9326;49.468;11.008;2023-11-19T13:02:23;3.33;;;1.13;;
18399;SDS011;9326;49.468;11.008;2023-11-19T13:05:28;2.47;;;1.20;;
18399;SDS011;9326;49.468;11.008;2023-11-19T13:08:00;2.23;;;1.20;;
18399;SDS011;9326;49.468;11.008;2023-11-19T13:10:28;2.87;;;1.40;;
18399;SDS011;9326;49.468;11.008;2023-11-19T13:13:05;2.53;;;1.20;;
18399;SDS011;9326;49.468;11.008;2023-11-19T13:15:33;3.40;;;1.10;;
18399;SDS011;9326;49.468;11.008;2023-11-19T13:18:00;3.33;;;1.10;;
18399;SDS011;9326;49.468;11.008;2023-11-19T13:20:29;1.27;;;0.90;;
18399;SDS011;9326;49.468;11.008;2023-11-19T13:22:57;4.47;;;1.20;;
18399;SDS011;9326;49.468;11.008;2023-11-19T13:25:25;1.80;;;1.00;;
18399;SDS011;9326;49.468;11.008;2023-11-19T13:27:52;1.90;;;0.90;;
18399;SDS011;9326;49.468;11.008;2023-11-19T13:30:20;4.50;;;1.33;;
18399;SDS011;9326;49.468;11.008;2023-11-19T13:32:47;2.50;;;0.90;;
18399;SDS011;9326;49.468;11.008;2023-11-19T13:35:14;1.93;;;1.07;;
18399;SDS011;9326;49.468;11.008;2023-11-19T13:37:43;3.17;;;1.13;;
18399;SDS011;9326;49.468;11.008;2023-11-19T13:40:11;2.70;;;1.00;;
18399;SDS011;9326;49.468;11.008;2023-11-19T13:42:40;1.57;;;1.03;;
18399;SDS011;9326;49.468;11.008;2023-11-19T13:45:08;1.47;;;1.10;;
18399;SDS011;9326;49.468;11.008;2023-11-19T13:47:37;2.43;;;1.20;;
18399;SDS011;9326;49.468;11.008;2023-11-19T13:50:06;2.80;;;1.40;;
18399;SDS011;9326;49.468;11.008;2023-11-19T13:52:34;1.80;;;1.20;;
18399;SDS011;9326;49.468;11.008;2023-11-19T13:55:03;3.20;;;1.30;;
18399;SDS011;9326;49.468;11.008;2023-11-19T13:57:31;2.63;;;1.00;;
18399;SDS011;9326;49.468;11.008;2023-11-19T13:59:59;1.10;;;1.00;;
18399;SDS011;9326;49.468;11.008;2023-11-19T14:02:27;1.33;;;1.00;;
18399;SDS011;9326;49.468;11.008;2023-11-19T14:04:55;2.77;;;1.27;;
18399;SDS011;9326;49.468;11.008;2023-11-19T14:07:22;2.67;;;1.03;;
18399;SDS011;9326;49.468;11.008;2023-11-19T14:09:49;3.23;;;1.53;;
18399;SDS011;9326;49.468;11.008;2023-11-19T14:12:18;1.93;;;0.90;;
18399;SDS011;9326;49.468;11.008;2023-11-19T14:14:45;1.43;;;0.90;;
18399;SDS011;9326;49.468;11.008;2023-11-19T14:17:12;2.30;;;1.10;;
18399;SDS011;9326;49.468;11.008;2023-11-19T14:19:41;2.33;;;1.17;;
18399;SDS011;9326;49.468;11.008;2023-11-19T14:22:09;1.30;;;1.10;;
18399;SDS011;9326;49.468;11.008;2023-11-19T14:24:36;1.83;;;0.90;;
18399;SDS011;9326;49.468;11.008;2023-11-19T14:27:04;2.40;;;1.07;;
18399;SDS011;9326;49.468;11.008;2023-11-19T14:29:33;2.77;;;0.83;;
18399;SDS011;9326;49.468;11.008;2023-11-19T14:32:00;2.53;;;0.80;;
18399;SDS011;9326;49.468;11.008;2023-11-19T14:34:28;2.50;;;1.10;;
18399;SDS011;9326;49.468;11.008;2023-11-19T14:36:55;3.53;;;0.90;;
18399;SDS011;9326;49.468;11.008;2023-11-19T14:39:22;4.40;;;1.10;;
18399;SDS011;9326;49.468;11.008;2023-11-19T14:41:49;2.73;;;1.00;;
18399;SDS011;9326;49.468;11.008;2023-11-19T14:44:17;2.77;;;1.17;;
18399;SDS011;9326;49.468;11.008;2023-11-19T14:46:46;2.33;;;1.03;;
18399;SDS011;9326;49.468;11.008;2023-11-19T14:49:13;2.27;;;1.10;;
18399;SDS011;9326;49.468;11.008;2023-11-19T14:51:41;9.40;;;5.43;;
18399;SDS011;9326;49.468;11.008;2023-11-19T14:54:08;2.70;;;1.30;;
18399;SDS011;9326;49.468;11.008;2023-11-19T14:56:35;2.60;;;1.20;;
18399;SDS011;9326;49.468;11.008;2023-11-19T14:59:03;1.50;;;1.10;;
18399;SDS011;9326;49.468;11.008;2023-11-19T15:01:31;1.83;;;1.10;;
18399;SDS011;9326;49.468;11.008;2023-11-19T15:03:59;1.60;;;1.00;;
18399;SDS011;9326;49.468;11.008;2023-11-19T15:06:26;2.43;;;0.90;;
18399;SDS011;9326;49.468;11.008;2023-11-19T15:08:56;5.27;;;0.93;;
18399;SDS011;9326;49.468;11.008;2023-11-19T15:11:23;3.27;;;1.47;;
18399;SDS011;9326;49.468;11.008;2023-11-19T15:13:50;1.97;;;1.20;;
18399;SDS011;9326;49.468;11.008;2023-11-19T15:16:17;3.37;;;1.40;;
18399;SDS011;9326;49.468;11.008;2023-11-19T15:18:50;2.23;;;1.07;;
18399;SDS011;9326;49.468;11.008;2023-11-19T15:21:19;3.60;;;1.30;;
18399;SDS011;9326;49.468;11.008;2023-11-19T15:23:47;2.13;;;1.00;;
18399;SDS011;9326;49.468;11.008;2023-11-19T15:26:14;1.83;;;0.93;;
18399;SDS011;9326;49.468;11.008;2023-11-19T15:28:41;1.93;;;1.10;;
18399;SDS011;9326;49.468;11.008;2023-11-19T15:31:08;1.83;;;1.03;;
18399;SDS011;9326;49.468;11.008;2023-11-19T15:33:35;2.80;;;1.20;;
18399;SDS011;9326;49.468;11.008;2023-11-19T15:36:04;1.73;;;1.27;;
18399;SDS011;9326;49.468;11.008;2023-11-19T15:38:34;2.97;;;1.10;;
18399;SDS011;9326;49.468;11.008;2023-11-19T15:41:01;2.33;;;1.30;;
18399;SDS011;9326;49.468;11.008;2023-11-19T15:43:29;2.63;;;1.60;;
18399;SDS011;9326;49.468;11.008;2023-11-19T15:45:57;1.70;;;1.60;;
18399;SDS011;9326;49.468;11.008;2023-11-19T15:48:24;3.37;;;1.63;;
18399;SDS011;9326;49.468;11.008;2023-11-19T15:50:51;2.80;;;1.27;;
18399;SDS011;9326;49.468;11.008;2023-11-19T15:53:19;2.13;;;1.07;;
18399;SDS011;9326;49.468;11.008;2023-11-19T15:55:47;2.03;;;1.50;;
18399;SDS011;9326;49.468;11.008;2023-11-19T15:58:14;3.23;;;1.50;;
18399;SDS011;9326;49.468;11.008;2023-11-19T16:00:42;1.83;;;1.20;;
18399;SDS011;9326;49.468;11.008;2023-11-19T16:03:12;4.17;;;1.30;;
18399;SDS011;9326;49.468;11.008;2023-11-19T16:05:39;4.47;;;1.10;;
18399;SDS011;9326;49.468;11.008;2023-11-19T16:08:06;3.20;;;1.40;;
18399;SDS011;9326;49.468;11.008;2023-11-19T16:10:35;2.57;;;1.60;;
18399;SDS011;9326;49.468;11.008;2023-11-19T16:13:06;3.03;;;1.40;;
18399;SDS011;9326;49.468;11.008;2023-11-19T16:15:33;3.47;;;1.40;;
18399;SDS011;9326;49.468;11.008;2023-11-19T16:18:00;3.17;;;1.30;;
18399;SDS011;9326;49.468;11.008;2023-11-19T16:20:27;2.23;;;1.60;;
18399;SDS011;9326;49.468;11.008;2023-11-19T16:22:56;4.40;;;1.60;;
18399;SDS011;9326;49.468;11.008;2023-11-19T16:25:25;2.37;;;1.43;;
18399;SDS011;9326;49.468;11.008;2023-11-19T16:27:52;2.67;;;1.50;;
18399;SDS011;9326;49.468;11.008;2023-11-19T16:30:22;2.43;;;1.20;;
18399;SDS011;9326;49.468;11.008;2023-11-19T16:32:51;4.17;;;1.30;;
18399;SDS011;9326;49.468;11.008;2023-11-19T16:35:19;2.10;;;1.30;;
18399;SDS011;9326;49.468;11.008;2023-11-19T16:37:46;4.30;;;2.37;;
18399;SDS011;9326;49.468;11.008;2023-11-19T16:40:14;6.03;;;3.93;;
18399;SDS011;9326;49.468;11.008;2023-11-19T16:42:42;3.80;;;2.80;;
18399;SDS011;9326;49.468;11.008;2023-11-19T16:45:11;3.37;;;2.40;;
18399;SDS011;9326;49.468;11.008;2023-11-19T16:47:40;3.03;;;1.53;;
18399;SDS011;9326;49.468;11.008;2023-11-19T16:50:10;3.13;;;1.50;;
18399;SDS011;9326;49.468;11.008;2023-11-19T16:52:37;2.47;;;1.10;;
18399;SDS011;9326;49.468;11.008;2023-11-19T16:55:05;4.60;;;1.73;;
18399;SDS011;9326;49.468;11.008;2023-11-19T16:57:36;3.00;;;1.30;;
18399;SDS011;9326;49.468;11.008;2023-11-19T17:00:05;3.07;;;1.50;;
18399;SDS011;9326;49.468;11.008;2023-11-19T17:02:32;2.93;;;1.40;;
18399;SDS011;9326;49.468;11.008;2023-11-19T17:05:01;2.90;;;1.70;;
18399;SDS011;9326;49.468;11.008;2023-11-19T17:07:28;2.33;;;1.20;;
18399;SDS011;9326;49.468;11.008;2023-11-19T17:09:55;2.53;;;1.27;;
18399;SDS011;9326;49.468;11.008;2023-11-19T17:12:22;3.23;;;1.50;;
18399;SDS011;9326;49.468;11.008;2023-11-19T17:14:51;3.00;;;1.50;;
18399;SDS011;9326;49.468;11.008;2023-11-19T17:17:26;2.67;;;1.30;;
18399;SDS011;9326;49.468;11.008;2023-11-19T17:19:58;2.77;;;1.27;;
18399;SDS011;9326;49.468;11.008;2023-11-19T17:22:27;2.87;;;1.20;;
18399;SDS011;9326;49.468;11.008;2023-11-19T17:24:54;1.97;;;1.23;;
18399;SDS011;9326;49.468;11.008;2023-11-19T17:27:22;2.27;;;1.27;;
18399;SDS011;9326;49.468;11.008;2023-11-19T17:29:52;4.60;;;1.70;;
18399;SDS011;9326;49.468;11.008;2023-11-19T17:32:19;5.37;;;1.70;;
18399;SDS011;9326;49.468;11.008;2023-11-19T17:34:47;3.07;;;1.60;;
18399;SDS011;9326;49.468;11.008;2023-11-19T17:37:15;3.90;;;1.77;;
18399;SDS011;9326;49.468;11.008;2023-11-19T17:39:44;3.20;;;1.73;;
18399;SDS011;9326;49.468;11.008;2023-11-19T17:42:12;6.13;;;1.60;;
18399;SDS011;9326;49.468;11.008;2023-11-19T17:44:39;5.37;;;1.63;;
18399;SDS011;9326;49.468;11.008;2023-11-19T17:47:06;2.43;;;1.27;;
18399;SDS011;9326;49.468;11.008;2023-11-19T17:49:34;3.20;;;1.37;;
18399;SDS011;9326;49.468;11.008;2023-11-19T17:52:01;3.03;;;1.53;;
18399;SDS011;9326;49.468;11.008;2023-11-19T17:54:28;5.20;;;1.90;;
18399;SDS011;9326;49.468;11.008;2023-11-19T17:56:58;4.50;;;2.00;;
18399;SDS011;9326;49.468;11.008;2023-11-19T17:59:29;4.70;;;2.00;;
18399;SDS011;9326;49.468;11.008;2023-11-19T18:01:56;5.70;;;2.27;;
18399;SDS011;9326;49.468;11.008;2023-11-19T18:04:25;3.00;;;2.20;;
18399;SDS011;9326;49.468;11.008;2023-11-19T18:06:52;4.43;;;2.47;;
18399;SDS011;9326;49.468;11.008;2023-11-19T18:09:19;4.50;;;1.87;;
18399;SDS011;9326;49.468;11.008;2023-11-19T18:11:46;4.43;;;2.10;;
18399;SDS011;9326;49.468;11.008;2023-11-19T18:14:16;3.67;;;1.77;;
18399;SDS011;9326;49.468;11.008;2023-11-19T18:16:44;3.90;;;1.97;;
18399;SDS011;9326;49.468;11.008;2023-11-19T18:19:11;5.03;;;1.77;;
18399;SDS011;9326;49.468;11.008;2023-11-19T18:21:38;4.43;;;1.77;;
18399;SDS011;9326;49.468;11.008;2023-11-19T18:24:06;4.43;;;1.70;;
18399;SDS011;9326;49.468;11.008;2023-11-19T18:26:34;3.93;;;1.40;;
18399;SDS011;9326;49.468;11.008;2023-11-19T18:29:02;3.63;;;1.73;;
18399;SDS011;9326;49.468;11.008;2023-11-19T18:31:30;4.43;;;1.57;;
18399;SDS011;9326;49.468;11.008;2023-11-19T18:33:58;2.90;;;1.43;;
18399;SDS011;9326;49.468;11.008;2023-11-19T18:36:25;4.03;;;1.60;;
18399;SDS011;9326;49.468;11.008;2023-11-19T18:38:54;2.97;;;1.67;;
18399;SDS011;9326;49.468;11.008;2023-11-19T18:41:21;4.23;;;1.67;;
18399;SDS011;9326;49.468;11.008;2023-11-19T18:43:48;4.97;;;1.40;;
18399;SDS011;9326;49.468;11.008;2023-11-19T18:46:15;5.00;;;2.13;;
18399;SDS011;9326;49.468;11.008;2023-11-19T18:48:44;4.13;;;1.97;;
18399;SDS011;9326;49.468;11.008;2023-11-19T18:51:11;6.30;;;2.20;;
18399;SDS011;9326;49.468;11.008;2023-11-19T18:53:39;2.70;;;1.90;;
18399;SDS011;9326;49.468;11.008;2023-11-19T18:56:06;4.00;;;1.90;;
18399;SDS011;9326;49.468;11.008;2023-11-19T18:58:34;3.17;;;2.00;;
18399;SDS011;9326;49.468;11.008;2023-11-19T19:01:01;3.93;;;2.03;;
18399;SDS011;9326;49.468;11.008;2023-11-19T19:03:28;7.73;;;2.30;;
18399;SDS011;9326;49.468;11.008;2023-11-19T19:05:57;5.97;;;2.17;;
18399;SDS011;9326;49.468;11.008;2023-11-19T19:08:25;5.50;;;1.93;;
18399;SDS011;9326;49.468;11.008;2023-11-19T19:10:52;2.57;;;1.57;;
18399;SDS011;9326;49.468;11.008;2023-11-19T19:13:20;6.13;;;2.90;;
18399;SDS011;9326;49.468;11.008;2023-11-19T19:15:47;5.20;;;3.80;;
18399;SDS011;9326;49.468;11.008;2023-11-19T19:18:14;4.33;;;2.80;;
18399;SDS011;9326;49.468;11.008;2023-11-19T19:20:42;8.40;;;4.20;;
18399;SDS011;9326;49.468;11.008;2023-11-19T19:23:11;9.90;;;6.00;;
18399;SDS011;9326;49.468;11.008;2023-11-19T19:25:39;21.90;;;17.77;;
18399;SDS011;9326;49.468;11.008;2023-11-19T19:28:06;18.37;;;11.20;;
18399;SDS011;9326;49.468;11.008;2023-11-19T19:30:34;15.97;;;13.30;;
18399;SDS011;9326;49.468;11.008;2023-11-19T19:33:01;20.30;;;17.87;;
18399;SDS011;9326;49.468;11.008;2023-11-19T19:35:29;18.67;;;16.17;;
18399;SDS011;9326;49.468;11.008;2023-11-19T19:37:56;13.50;;;10.77;;
18399;SDS011;9326;49.468;11.008;2023-11-19T19:40:25;14.67;;;9.47;;
18399;SDS011;9326;49.468;11.008;2023-11-19T19:42:53;8.83;;;6.50;;
18399;SDS011;9326;49.468;11.008;2023-11-19T19:45:21;4.00;;;2.37;;
18399;SDS011;9326;49.468;11.008;2023-11-19T19:47:49;5.70;;;1.80;;
18399;SDS011;9326;49.468;11.008;2023-11-19T19:50:17;3.67;;;1.77;;
18399;SDS011;9326;49.468;11.008;2023-11-19T19:52:44;5.70;;;2.00;;
18399;SDS011;9326;49.468;11.008;2023-11-19T19:55:12;4.43;;;1.70;;
18399;SDS011;9326;49.468;11.008;2023-11-19T19:57:44;3.87;;;1.50;;
18399;SDS011;9326;49.468;11.008;2023-11-19T20:00:12;2.57;;;1.30;;
18399;SDS011;9326;49.468;11.008;2023-11-19T20:02:40;3.57;;;1.40;;
18399;SDS011;9326;49.468;11.008;2023-11-19T20:05:07;4.33;;;1.47;;
18399;SDS011;9326;49.468;11.008;2023-11-19T20:07:36;6.10;;;1.53;;
18399;SDS011;9326;49.468;11.008;2023-11-19T20:10:04;4.83;;;1.53;;
18399;SDS011;9326;49.468;11.008;2023-11-19T20:12:32;4.10;;;1.77;;
18399;SDS011;9326;49.468;11.008;2023-11-19T20:15:00;4.77;;;1.50;;
18399;SDS011;9326;49.468;11.008;2023-11-19T20:17:31;7.23;;;1.60;;
18399;SDS011;9326;49.468;11.008;2023-11-19T20:19:58;5.73;;;1.50;;
18399;SDS011;9326;49.468;11.008;2023-11-19T20:22:26;2.80;;;1.40;;
18399;SDS011;9326;49.468;11.008;2023-11-19T20:24:54;4.57;;;1.67;;
18399;SDS011;9326;49.468;11.008;2023-11-19T20:27:21;5.67;;;1.80;;
18399;SDS011;9326;49.468;11.008;2023-11-19T20:29:48;5.97;;;1.80;;
18399;SDS011;9326;49.468;11.008;2023-11-19T20:32:24;4.83;;;2.20;;
18399;SDS011;9326;49.468;11.008;2023-11-19T20:34:55;6.20;;;2.00;;
18399;SDS011;9326;49.468;11.008;2023-11-19T20:37:23;6.73;;;2.97;;
18399;SDS011;9326;49.468;11.008;2023-11-19T20:39:55;5.97;;;2.27;;
18399;SDS011;9326;49.468;11.008;2023-11-19T20:42:22;4.97;;;2.00;;
18399;SDS011;9326;49.468;11.008;2023-11-19T20:44:49;7.20;;;2.70;;
18399;SDS011;9326;49.468;11.008;2023-11-19T20:47:26;8.37;;;3.90;;
18399;SDS011;9326;49.468;11.008;2023-11-19T20:50:02;8.73;;;3.40;;
18399;SDS011;9326;49.468;11.008;2023-11-19T20:52:43;6.53;;;2.50;;
18399;SDS011;9326;49.468;11.008;2023-11-19T20:55:11;7.00;;;2.80;;
18399;SDS011;9326;49.468;11.008;2023-11-19T20:57:39;7.13;;;2.73;;
18399;SDS011;9326;49.468;11.008;2023-11-19T21:00:06;8.00;;;3.50;;
18399;SDS011;9326;49.468;11.008;2023-11-19T21:02:38;8.50;;;4.17;;
18399;SDS011;9326;49.468;11.008;2023-11-19T21:05:13;12.57;;;5.17;;
18399;SDS011;9326;49.468;11.008;2023-11-19T21:07:55;9.77;;;5.03;;
18399;SDS011;9326;49.468;11.008;2023-11-19T21:10:26;13.20;;;6.17;;
18399;SDS011;9326;49.468;11.008;2023-11-19T21:13:07;11.13;;;4.23;;
18399;SDS011;9326;49.468;11.008;2023-11-19T21:16:00;10.80;;;5.13;;
18399;SDS011;9326;49.468;11.008;2023-11-19T21:30:13;7.47;;;3.60;;
18399;SDS011;9326;49.468;11.008;2023-11-19T21:32:43;12.40;;;6.73;;
18399;SDS011;9326;49.468;11.008;2023-11-19T21:35:09;10.57;;;4.00;;
18399;SDS011;9326;49.468;11.008;2023-11-19T21:37:36;13.17;;;5.70;;
18399;SDS011;9326;49.468;11.008;2023-11-19T21:40:03;13.03;;;7.20;;
18399;SDS011;9326;49.468;11.008;2023-11-19T21:42:34;12.57;;;5.23;;
18399;SDS011;9326;49.468;11.008;2023-11-19T21:45:01;9.17;;;4.80;;
18399;SDS011;9326;49.468;11.008;2023-11-19T21:47:30;10.93;;;3.47;;
18399;SDS011;9326;49.468;11.008;2023-11-19T21:49:58;6.03;;;2.33;;
18399;SDS011;9326;49.468;11.008;2023-11-19T21:52:26;7.40;;;2.20;;
18399;SDS011;9326;49.468;11.008;2023-11-19T21:54:53;5.57;;;2.00;;
18399;SDS011;9326;49.468;11.008;2023-11-19T21:57:20;7.50;;;2.40;;
18399;SDS011;9326;49.468;11.008;2023-11-19T21:59:48;8.00;;;2.87;;
18399;SDS011;9326;49.468;11.008;2023-11-19T22:02:15;9.27;;;3.20;;
18399;SDS011;9326;49.468;11.008;2023-11-19T22:04:44;8.50;;;3.03;;
18399;SDS011;9326;49.468;11.008;2023-11-19T22:07:11;9.23;;;2.50;;
18399;SDS011;9326;49.468;11.008;2023-11-19T22:09:38;6.87;;;2.10;;
18399;SDS011;9326;49.468;11.008;2023-11-19T22:12:06;8.23;;;2.30;;
18399;SDS011;9326;49.468;11.008;2023-11-19T22:14:35;8.23;;;2.23;;
18399;SDS011;9326;49.468;11.008;2023-11-19T22:17:02;4.67;;;1.67;;
18399;SDS011;9326;49.468;11.008;2023-11-19T22:19:29;6.73;;;2.27;;
18399;SDS011;9326;49.468;11.008;2023-11-19T22:21:58;7.53;;;2.33;;
18399;SDS011;9326;49.468;11.008;2023-11-19T22:24:25;7.83;;;2.33;;
18399;SDS011;9326;49.468;11.008;2023-11-19T22:26:53;7.93;;;2.00;;
18399;SDS011;9326;49.468;11.008;2023-11-19T22:29:20;5.73;;;2.03;;
18399;SDS011;9326;49.468;11.008;2023-11-19T22:31:48;7.33;;;3.10;;
18399;SDS011;9326;49.468;11.008;2023-11-19T22:34:15;10.40;;;5.43;;
18399;SDS011;9326;49.468;11.008;2023-11-19T22:36:42;7.57;;;3.07;;
18399;SDS011;9326;49.468;11.008;2023-11-19T22:39:12;7.83;;;2.90;;
18399;SDS011;9326;49.468;11.008;2023-11-19T22:41:40;9.93;;;3.23;;
18399;SDS011;9326;49.468;11.008;2023-11-19T22:44:07;7.10;;;4.27;;
18399;SDS011;9326;49.468;11.008;2023-11-19T22:46:34;10.50;;;4.40;;
18399;SDS011;9326;49.468;11.008;2023-11-19T22:49:01;9.77;;;3.50;;
18399;SDS011;9326;49.468;11.008;2023-11-19T22:51:29;7.73;;;2.53;;
18399;SDS011;9326;49.468;11.008;2023-11-19T22:53:56;11.97;;;4.33;;
18399;SDS011;9326;49.468;11.008;2023-11-19T22:56:25;13.30;;;4.00;;
18399;SDS011;9326;49.468;11.008;2023-11-19T22:58:52;16.27;;;8.07;;
18399;SDS011;9326;49.468;11.008;2023-11-19T23:01:21;8.63;;;4.13;;
18399;SDS011;9326;49.468;11.008;2023-11-19T23:03:48;10.10;;;4.23;;
18399;SDS011;9326;49.468;11.008;2023-11-19T23:06:15;16.47;;;11.03;;
18399;SDS011;9326;49.468;11.008;2023-11-19T23:08:44;13.53;;;7.77;;
18399;SDS011;9326;49.468;11.008;2023-11-19T23:11:11;20.23;;;13.03;;
18399;SDS011;9326;49.468;11.008;2023-11-19T23:13:39;9.47;;;4.50;;
18399;SDS011;9326;49.468;11.008;2023-11-19T23:16:07;8.83;;;3.00;;
18399;SDS011;9326;49.468;11.008;2023-11-19T23:18:35;10.37;;;3.67;;
18399;SDS011;9326;49.468;11.008;2023-11-19T23:21:02;9.00;;;3.70;;
18399;SDS011;9326;49.468;11.008;2023-11-19T23:23:30;12.20;;;2.90;;
18399;SDS011;9326;49.468;11.008;2023-11-19T23:25:57;13.37;;;3.37;;
18399;SDS011;9326;49.468;11.008;2023-11-19T23:28:24;12.50;;;4.47;;
18399;SDS011;9326;49.468;11.008;2023-11-19T23:30:53;7.93;;;2.63;;
18399;SDS011;9326;49.468;11.008;2023-11-19T23:33:20;8.97;;;2.77;;
18399;SDS011;9326;49.468;11.008;2023-11-19T23:35:58;12.20;;;3.10;;
18399;SDS011;9326;49.468;11.008;2023-11-19T23:38:25;8.17;;;2.17;;
18399;SDS011;9326;49.468;11.008;2023-11-19T23:40:52;10.40;;;2.93;;
18399;SDS011;9326;49.468;11.008;2023-11-19T23:43:20;13.97;;;3.07;;
18399;SDS011;9326;49.468;11.008;2023-11-19T23:45:47;8.47;;;2.40;;
18399;SDS011;9326;49.468;11.008;2023-11-19T23:48:17;9.37;;;2.27;;
18399;SDS011;9326;49.468;11.008;2023-11-19T23:50:44;8.57;;;2.23;;
18399;SDS011;9326;49.468;11.008;2023-11-19T23:53:12;7.70;;;2.10;;
18399;SDS011;9326;49.468;11.008;2023-11-19T23:55:39;9.00;;;2.07;;
18399;SDS011;9326;49.468;11.008;2023-11-19T23:58:07;7.83;;;2.20;;
